sensor_id;sensor_type;location;lat;lon;timestamp;P1;durP1;ratioP1;P2;durP2;ratioP2
17670;SDS011;8954;48.694;8.940;2022-08-07T00:01:18;2.90;;;1.07;;
17670;SDS011;8954;48.694;8.940;2022-08-07T00:03:45;3.60;;;1.20;;
17670;SDS011;8954;48.694;8.940;2022-08-07T00:06:11;1.90;;;1.27;;
17670;SDS011;8954;48.694;8.940;2022-08-07T00:08:37;3.53;;;1.57;;
17670;SDS011;8954;48.694;8.940;2022-08-07T00:11:03;1.20;;;1.00;;
17670;SDS011;8954;48.694;8.940;2022-08-07T00:13:30;2.77;;;1.33;;
17670;SDS011;8954;48.694;8.940;2022-08-07T00:15:57;2.00;;;1.20;;
17670;SDS011;8954;48.694;8.940;2022-08-07T00:18:24;2.83;;;0.70;;
17670;SDS011;8954;48.694;8.940;2022-08-07T00:20:56;5.63;;;1.40;;
17670;SDS011;8954;48.694;8.940;2022-08-07T00:23:23;1.40;;;1.00;;
17670;SDS011;8954;48.694;8.940;2022-08-07T00:25:50;1.67;;;0.80;;
17670;SDS011;8954;48.694;8.940;2022-08-07T00:28:15;2.93;;;0.80;;
17670;SDS011;8954;48.694;8.940;2022-08-07T00:30:41;1.80;;;0.83;;
17670;SDS011;8954;48.694;8.940;2022-08-07T00:33:06;1.60;;;0.93;;
17670;SDS011;8954;48.694;8.940;2022-08-07T00:35:32;1.20;;;0.90;;
17670;SDS011;8954;48.694;8.940;2022-08-07T00:37:58;1.90;;;0.80;;
17670;SDS011;8954;48.694;8.940;2022-08-07T00:40:24;3.77;;;1.10;;
17670;SDS011;8954;48.694;8.940;2022-08-07T00:42:51;2.10;;;0.60;;
17670;SDS011;8954;48.694;8.940;2022-08-07T00:45:16;1.47;;;1.07;;
17670;SDS011;8954;48.694;8.940;2022-08-07T00:47:42;1.70;;;1.10;;
17670;SDS011;8954;48.694;8.940;2022-08-07T00:50:08;0.80;;;0.80;;
17670;SDS011;8954;48.694;8.940;2022-08-07T00:52:34;2.07;;;0.90;;
17670;SDS011;8954;48.694;8.940;2022-08-07T00:55:00;1.40;;;0.90;;
17670;SDS011;8954;48.694;8.940;2022-08-07T00:57:25;1.10;;;0.90;;
17670;SDS011;8954;48.694;8.940;2022-08-07T00:59:51;1.00;;;0.80;;
17670;SDS011;8954;48.694;8.940;2022-08-07T01:02:17;2.13;;;1.13;;
17670;SDS011;8954;48.694;8.940;2022-08-07T01:04:43;1.00;;;0.90;;
17670;SDS011;8954;48.694;8.940;2022-08-07T01:07:09;2.20;;;1.17;;
17670;SDS011;8954;48.694;8.940;2022-08-07T01:09:36;1.50;;;1.10;;
17670;SDS011;8954;48.694;8.940;2022-08-07T01:12:01;1.13;;;1.00;;
17670;SDS011;8954;48.694;8.940;2022-08-07T01:14:27;2.97;;;0.83;;
17670;SDS011;8954;48.694;8.940;2022-08-07T01:16:53;1.57;;;0.87;;
17670;SDS011;8954;48.694;8.940;2022-08-07T01:19:20;1.73;;;1.27;;
17670;SDS011;8954;48.694;8.940;2022-08-07T01:21:48;3.87;;;1.10;;
17670;SDS011;8954;48.694;8.940;2022-08-07T01:24:15;0.97;;;0.77;;
17670;SDS011;8954;48.694;8.940;2022-08-07T01:26:42;1.00;;;0.80;;
17670;SDS011;8954;48.694;8.940;2022-08-07T01:29:08;1.27;;;0.90;;
17670;SDS011;8954;48.694;8.940;2022-08-07T01:31:35;1.17;;;0.70;;
17670;SDS011;8954;48.694;8.940;2022-08-07T01:34:01;1.00;;;0.90;;
17670;SDS011;8954;48.694;8.940;2022-08-07T01:36:28;1.33;;;1.23;;
17670;SDS011;8954;48.694;8.940;2022-08-07T01:38:54;1.53;;;1.20;;
17670;SDS011;8954;48.694;8.940;2022-08-07T01:41:20;5.07;;;1.30;;
17670;SDS011;8954;48.694;8.940;2022-08-07T01:43:48;1.70;;;1.07;;
17670;SDS011;8954;48.694;8.940;2022-08-07T01:46:15;3.47;;;0.97;;
17670;SDS011;8954;48.694;8.940;2022-08-07T01:48:44;1.67;;;0.93;;
17670;SDS011;8954;48.694;8.940;2022-08-07T01:51:12;1.23;;;1.00;;
17670;SDS011;8954;48.694;8.940;2022-08-07T01:53:52;1.13;;;0.90;;
17670;SDS011;8954;48.694;8.940;2022-08-07T01:56:22;2.63;;;1.33;;
17670;SDS011;8954;48.694;8.940;2022-08-07T01:58:52;2.47;;;1.10;;
17670;SDS011;8954;48.694;8.940;2022-08-07T02:01:26;4.03;;;0.77;;
17670;SDS011;8954;48.694;8.940;2022-08-07T02:04:17;1.10;;;1.00;;
17670;SDS011;8954;48.694;8.940;2022-08-07T02:06:43;3.10;;;1.13;;
17670;SDS011;8954;48.694;8.940;2022-08-07T02:09:09;2.60;;;1.00;;
17670;SDS011;8954;48.694;8.940;2022-08-07T02:11:41;3.30;;;1.13;;
17670;SDS011;8954;48.694;8.940;2022-08-07T02:14:09;2.27;;;0.87;;
17670;SDS011;8954;48.694;8.940;2022-08-07T02:16:36;1.53;;;0.90;;
17670;SDS011;8954;48.694;8.940;2022-08-07T02:19:03;0.90;;;0.80;;
17670;SDS011;8954;48.694;8.940;2022-08-07T02:21:34;4.57;;;0.80;;
17670;SDS011;8954;48.694;8.940;2022-08-07T02:24:02;2.10;;;1.00;;
17670;SDS011;8954;48.694;8.940;2022-08-07T02:26:30;4.23;;;1.00;;
17670;SDS011;8954;48.694;8.940;2022-08-07T02:29:01;2.20;;;1.20;;
17670;SDS011;8954;48.694;8.940;2022-08-07T02:31:29;1.63;;;0.80;;
17670;SDS011;8954;48.694;8.940;2022-08-07T02:33:56;2.17;;;1.10;;
17670;SDS011;8954;48.694;8.940;2022-08-07T02:36:23;1.70;;;0.73;;
17670;SDS011;8954;48.694;8.940;2022-08-07T02:38:50;0.73;;;0.73;;
17670;SDS011;8954;48.694;8.940;2022-08-07T02:41:17;1.20;;;0.93;;
17670;SDS011;8954;48.694;8.940;2022-08-07T02:43:43;3.13;;;0.90;;
17670;SDS011;8954;48.694;8.940;2022-08-07T02:46:10;2.10;;;0.90;;
17670;SDS011;8954;48.694;8.940;2022-08-07T02:48:36;2.17;;;0.90;;
17670;SDS011;8954;48.694;8.940;2022-08-07T02:51:04;0.77;;;0.67;;
17670;SDS011;8954;48.694;8.940;2022-08-07T02:53:34;2.27;;;0.70;;
17670;SDS011;8954;48.694;8.940;2022-08-07T02:56:02;1.87;;;0.97;;
17670;SDS011;8954;48.694;8.940;2022-08-07T02:58:29;0.80;;;0.80;;
17670;SDS011;8954;48.694;8.940;2022-08-07T03:00:57;1.07;;;0.87;;
17670;SDS011;8954;48.694;8.940;2022-08-07T03:03:26;1.30;;;0.97;;
17670;SDS011;8954;48.694;8.940;2022-08-07T03:05:54;0.80;;;0.80;;
17670;SDS011;8954;48.694;8.940;2022-08-07T03:08:22;4.77;;;1.20;;
17670;SDS011;8954;48.694;8.940;2022-08-07T03:10:48;1.17;;;0.90;;
17670;SDS011;8954;48.694;8.940;2022-08-07T03:13:14;2.83;;;1.10;;
17670;SDS011;8954;48.694;8.940;2022-08-07T03:15:41;2.07;;;1.10;;
17670;SDS011;8954;48.694;8.940;2022-08-07T03:18:08;1.67;;;1.00;;
17670;SDS011;8954;48.694;8.940;2022-08-07T03:20:35;1.17;;;1.07;;
17670;SDS011;8954;48.694;8.940;2022-08-07T03:23:02;2.90;;;1.03;;
17670;SDS011;8954;48.694;8.940;2022-08-07T03:25:28;1.23;;;1.00;;
17670;SDS011;8954;48.694;8.940;2022-08-07T03:27:58;1.53;;;0.90;;
17670;SDS011;8954;48.694;8.940;2022-08-07T03:30:25;1.80;;;1.10;;
17670;SDS011;8954;48.694;8.940;2022-08-07T03:32:51;0.77;;;0.77;;
17670;SDS011;8954;48.694;8.940;2022-08-07T03:35:20;0.93;;;0.83;;
17670;SDS011;8954;48.694;8.940;2022-08-07T03:37:49;2.30;;;0.90;;
17670;SDS011;8954;48.694;8.940;2022-08-07T03:40:18;1.73;;;0.80;;
17670;SDS011;8954;48.694;8.940;2022-08-07T03:42:44;2.37;;;1.10;;
17670;SDS011;8954;48.694;8.940;2022-08-07T03:45:10;1.00;;;0.90;;
17670;SDS011;8954;48.694;8.940;2022-08-07T03:47:37;1.53;;;0.90;;
17670;SDS011;8954;48.694;8.940;2022-08-07T03:50:03;1.97;;;0.80;;
17670;SDS011;8954;48.694;8.940;2022-08-07T03:52:29;2.23;;;0.97;;
17670;SDS011;8954;48.694;8.940;2022-08-07T03:54:57;1.10;;;1.10;;
17670;SDS011;8954;48.694;8.940;2022-08-07T03:57:24;1.17;;;1.03;;
17670;SDS011;8954;48.694;8.940;2022-08-07T03:59:51;1.67;;;1.07;;
17670;SDS011;8954;48.694;8.940;2022-08-07T04:02:18;1.70;;;0.83;;
17670;SDS011;8954;48.694;8.940;2022-08-07T04:04:43;2.23;;;1.17;;
17670;SDS011;8954;48.694;8.940;2022-08-07T04:07:09;1.93;;;1.10;;
17670;SDS011;8954;48.694;8.940;2022-08-07T04:09:35;1.70;;;1.10;;
17670;SDS011;8954;48.694;8.940;2022-08-07T04:12:02;1.50;;;1.00;;
17670;SDS011;8954;48.694;8.940;2022-08-07T04:14:29;1.00;;;0.83;;
17670;SDS011;8954;48.694;8.940;2022-08-07T04:16:56;1.10;;;1.00;;
17670;SDS011;8954;48.694;8.940;2022-08-07T04:19:21;2.07;;;1.00;;
17670;SDS011;8954;48.694;8.940;2022-08-07T04:21:50;4.53;;;1.20;;
17670;SDS011;8954;48.694;8.940;2022-08-07T04:24:17;1.27;;;1.00;;
17670;SDS011;8954;48.694;8.940;2022-08-07T04:26:44;0.67;;;0.57;;
17670;SDS011;8954;48.694;8.940;2022-08-07T04:29:10;4.43;;;1.10;;
17670;SDS011;8954;48.694;8.940;2022-08-07T04:31:38;2.20;;;1.30;;
17670;SDS011;8954;48.694;8.940;2022-08-07T04:34:05;1.73;;;1.00;;
17670;SDS011;8954;48.694;8.940;2022-08-07T04:36:32;1.77;;;1.17;;
17670;SDS011;8954;48.694;8.940;2022-08-07T04:38:58;1.10;;;1.00;;
17670;SDS011;8954;48.694;8.940;2022-08-07T04:41:25;2.10;;;1.10;;
17670;SDS011;8954;48.694;8.940;2022-08-07T04:43:50;1.73;;;1.30;;
17670;SDS011;8954;48.694;8.940;2022-08-07T04:51:33;2.70;;;0.87;;
17670;SDS011;8954;48.694;8.940;2022-08-07T04:54:02;1.00;;;1.00;;
17670;SDS011;8954;48.694;8.940;2022-08-07T04:56:44;0.90;;;0.90;;
17670;SDS011;8954;48.694;8.940;2022-08-07T04:59:14;2.97;;;1.37;;
17670;SDS011;8954;48.694;8.940;2022-08-07T05:01:53;1.47;;;1.00;;
17670;SDS011;8954;48.694;8.940;2022-08-07T05:07:21;4.83;;;0.93;;
17670;SDS011;8954;48.694;8.940;2022-08-07T05:09:59;0.87;;;0.87;;
17670;SDS011;8954;48.694;8.940;2022-08-07T05:15:29;3.83;;;1.23;;
17670;SDS011;8954;48.694;8.940;2022-08-07T05:18:14;1.23;;;0.93;;
17670;SDS011;8954;48.694;8.940;2022-08-07T05:20:45;3.53;;;1.10;;
17670;SDS011;8954;48.694;8.940;2022-08-07T05:26:02;1.83;;;1.10;;
17670;SDS011;8954;48.694;8.940;2022-08-07T05:28:29;1.20;;;0.80;;
17670;SDS011;8954;48.694;8.940;2022-08-07T05:30:57;1.43;;;0.80;;
17670;SDS011;8954;48.694;8.940;2022-08-07T05:33:23;1.07;;;0.90;;
17670;SDS011;8954;48.694;8.940;2022-08-07T05:35:50;1.63;;;0.73;;
17670;SDS011;8954;48.694;8.940;2022-08-07T05:38:18;1.40;;;0.97;;
17670;SDS011;8954;48.694;8.940;2022-08-07T05:40:46;1.30;;;0.80;;
17670;SDS011;8954;48.694;8.940;2022-08-07T05:43:12;0.90;;;0.90;;
17670;SDS011;8954;48.694;8.940;2022-08-07T05:45:39;1.67;;;0.80;;
17670;SDS011;8954;48.694;8.940;2022-08-07T05:48:06;2.80;;;0.90;;
17670;SDS011;8954;48.694;8.940;2022-08-07T05:50:32;2.30;;;1.00;;
17670;SDS011;8954;48.694;8.940;2022-08-07T05:53:02;4.23;;;1.47;;
17670;SDS011;8954;48.694;8.940;2022-08-07T05:55:28;1.13;;;1.00;;
17670;SDS011;8954;48.694;8.940;2022-08-07T05:57:57;2.37;;;1.03;;
17670;SDS011;8954;48.694;8.940;2022-08-07T06:00:25;2.77;;;1.33;;
17670;SDS011;8954;48.694;8.940;2022-08-07T06:02:52;2.37;;;1.00;;
17670;SDS011;8954;48.694;8.940;2022-08-07T06:05:20;1.43;;;1.10;;
17670;SDS011;8954;48.694;8.940;2022-08-07T06:07:47;2.07;;;1.40;;
17670;SDS011;8954;48.694;8.940;2022-08-07T06:10:13;3.80;;;1.30;;
17670;SDS011;8954;48.694;8.940;2022-08-07T06:12:39;2.77;;;1.20;;
17670;SDS011;8954;48.694;8.940;2022-08-07T06:15:06;4.20;;;1.50;;
17670;SDS011;8954;48.694;8.940;2022-08-07T06:17:35;3.10;;;1.73;;
17670;SDS011;8954;48.694;8.940;2022-08-07T06:20:01;4.97;;;2.37;;
17670;SDS011;8954;48.694;8.940;2022-08-07T06:22:27;2.80;;;2.33;;
17670;SDS011;8954;48.694;8.940;2022-08-07T06:24:56;2.43;;;2.00;;
17670;SDS011;8954;48.694;8.940;2022-08-07T06:27:23;2.17;;;1.97;;
17670;SDS011;8954;48.694;8.940;2022-08-07T06:29:49;2.40;;;2.20;;
17670;SDS011;8954;48.694;8.940;2022-08-07T06:32:15;2.27;;;2.00;;
17670;SDS011;8954;48.694;8.940;2022-08-07T06:34:41;3.90;;;2.77;;
17670;SDS011;8954;48.694;8.940;2022-08-07T06:37:07;3.47;;;3.10;;
17670;SDS011;8954;48.694;8.940;2022-08-07T06:39:32;4.57;;;3.50;;
17670;SDS011;8954;48.694;8.940;2022-08-07T06:42:03;5.50;;;4.00;;
17670;SDS011;8954;48.694;8.940;2022-08-07T06:44:32;4.43;;;4.03;;
17670;SDS011;8954;48.694;8.940;2022-08-07T06:47:00;3.77;;;3.43;;
17670;SDS011;8954;48.694;8.940;2022-08-07T06:49:26;3.57;;;3.27;;
17670;SDS011;8954;48.694;8.940;2022-08-07T06:51:52;5.43;;;3.80;;
17670;SDS011;8954;48.694;8.940;2022-08-07T06:54:20;3.97;;;3.53;;
17670;SDS011;8954;48.694;8.940;2022-08-07T06:56:50;4.00;;;3.67;;
17670;SDS011;8954;48.694;8.940;2022-08-07T06:59:22;3.77;;;3.13;;
17670;SDS011;8954;48.694;8.940;2022-08-07T07:01:54;4.83;;;3.17;;
17670;SDS011;8954;48.694;8.940;2022-08-07T07:04:22;4.17;;;3.00;;
17670;SDS011;8954;48.694;8.940;2022-08-07T07:06:49;4.67;;;3.53;;
17670;SDS011;8954;48.694;8.940;2022-08-07T07:09:17;3.97;;;2.63;;
17670;SDS011;8954;48.694;8.940;2022-08-07T07:14:40;3.77;;;3.47;;
17670;SDS011;8954;48.694;8.940;2022-08-07T07:17:32;4.03;;;2.73;;
17670;SDS011;8954;48.694;8.940;2022-08-07T07:19:58;2.93;;;2.63;;
17670;SDS011;8954;48.694;8.940;2022-08-07T07:22:26;3.33;;;2.57;;
17670;SDS011;8954;48.694;8.940;2022-08-07T07:24:53;4.97;;;2.50;;
17670;SDS011;8954;48.694;8.940;2022-08-07T07:27:21;2.17;;;1.97;;
17670;SDS011;8954;48.694;8.940;2022-08-07T07:29:50;5.40;;;3.07;;
17670;SDS011;8954;48.694;8.940;2022-08-07T07:32:21;4.10;;;2.70;;
17670;SDS011;8954;48.694;8.940;2022-08-07T07:34:50;3.23;;;2.30;;
17670;SDS011;8954;48.694;8.940;2022-08-07T07:37:19;2.90;;;1.93;;
17670;SDS011;8954;48.694;8.940;2022-08-07T07:39:49;2.23;;;2.03;;
17670;SDS011;8954;48.694;8.940;2022-08-07T07:42:18;2.33;;;1.80;;
17670;SDS011;8954;48.694;8.940;2022-08-07T07:44:47;1.90;;;1.70;;
17670;SDS011;8954;48.694;8.940;2022-08-07T07:47:13;2.77;;;1.87;;
17670;SDS011;8954;48.694;8.940;2022-08-07T07:49:40;1.80;;;1.70;;
17670;SDS011;8954;48.694;8.940;2022-08-07T07:52:09;2.97;;;1.70;;
17670;SDS011;8954;48.694;8.940;2022-08-07T07:54:37;1.50;;;1.40;;
17670;SDS011;8954;48.694;8.940;2022-08-07T07:57:06;1.40;;;1.30;;
17670;SDS011;8954;48.694;8.940;2022-08-07T07:59:35;1.83;;;1.13;;
17670;SDS011;8954;48.694;8.940;2022-08-07T08:02:06;1.57;;;1.37;;
17670;SDS011;8954;48.694;8.940;2022-08-07T08:04:35;1.70;;;1.20;;
17670;SDS011;8954;48.694;8.940;2022-08-07T08:07:01;2.10;;;1.23;;
17670;SDS011;8954;48.694;8.940;2022-08-07T08:09:28;1.30;;;1.20;;
17670;SDS011;8954;48.694;8.940;2022-08-07T08:11:56;2.47;;;1.40;;
17670;SDS011;8954;48.694;8.940;2022-08-07T08:14:23;1.10;;;1.00;;
17670;SDS011;8954;48.694;8.940;2022-08-07T08:16:50;1.40;;;0.80;;
17670;SDS011;8954;48.694;8.940;2022-08-07T08:19:17;1.20;;;0.80;;
17670;SDS011;8954;48.694;8.940;2022-08-07T08:21:49;2.00;;;0.90;;
17670;SDS011;8954;48.694;8.940;2022-08-07T08:24:41;1.33;;;0.97;;
17670;SDS011;8954;48.694;8.940;2022-08-07T08:27:28;2.13;;;0.90;;
17670;SDS011;8954;48.694;8.940;2022-08-07T08:30:06;2.73;;;0.80;;
17670;SDS011;8954;48.694;8.940;2022-08-07T08:32:45;2.88;;;1.27;;
17670;SDS011;8954;48.694;8.940;2022-08-07T08:35:23;4.03;;;1.25;;
17670;SDS011;8954;48.694;8.940;2022-08-07T08:37:52;0.95;;;0.90;;
17670;SDS011;8954;48.694;8.940;2022-08-07T08:40:23;4.05;;;0.88;;
17670;SDS011;8954;48.694;8.940;2022-08-07T08:53:54;1.20;;;0.90;;
17670;SDS011;8954;48.694;8.940;2022-08-07T08:56:45;1.00;;;0.70;;
17670;SDS011;8954;48.694;8.940;2022-08-07T08:59:28;2.67;;;0.93;;
17670;SDS011;8954;48.694;8.940;2022-08-07T09:04:50;0.95;;;0.85;;
17670;SDS011;8954;48.694;8.940;2022-08-07T09:10:20;2.05;;;0.77;;
17670;SDS011;8954;48.694;8.940;2022-08-07T09:13:12;1.40;;;0.70;;
17670;SDS011;8954;48.694;8.940;2022-08-07T09:21:25;0.98;;;0.80;;
17670;SDS011;8954;48.694;8.940;2022-08-07T09:24:07;2.67;;;0.80;;
17670;SDS011;8954;48.694;8.940;2022-08-07T09:26:58;1.20;;;0.85;;
17670;SDS011;8954;48.694;8.940;2022-08-07T09:30:15;2.17;;;0.63;;
17670;SDS011;8954;48.694;8.940;2022-08-07T09:44:48;2.15;;;0.77;;
17670;SDS011;8954;48.694;8.940;2022-08-07T09:50:38;0.70;;;0.63;;
17670;SDS011;8954;48.694;8.940;2022-08-07T09:53:19;1.45;;;0.63;;
17670;SDS011;8954;48.694;8.940;2022-08-07T10:30:19;1.90;;;0.80;;
17670;SDS011;8954;48.694;8.940;2022-08-07T10:33:20;3.30;;;2.55;;
17670;SDS011;8954;48.694;8.940;2022-08-07T10:46:21;0.00;;;0.00;;
17670;SDS011;8954;48.694;8.940;2022-08-07T11:02:38;0.00;;;0.00;;
17670;SDS011;8954;48.694;8.940;2022-08-07T11:11:38;0.65;;;0.10;;
17670;SDS011;8954;48.694;8.940;2022-08-07T11:16:57;0.00;;;0.00;;
17670;SDS011;8954;48.694;8.940;2022-08-07T11:22:26;0.10;;;0.10;;
17670;SDS011;8954;48.694;8.940;2022-08-07T11:24:58;0.00;;;0.00;;
17670;SDS011;8954;48.694;8.940;2022-08-07T11:30:05;0.03;;;0.00;;
17670;SDS011;8954;48.694;8.940;2022-08-07T11:32:36;1.02;;;0.98;;
17670;SDS011;8954;48.694;8.940;2022-08-07T11:35:16;0.10;;;0.00;;
17670;SDS011;8954;48.694;8.940;2022-08-07T11:52:07;0.00;;;0.00;;
17670;SDS011;8954;48.694;8.940;2022-08-07T11:57:31;0.08;;;0.00;;
17670;SDS011;8954;48.694;8.940;2022-08-07T12:00:31;1.88;;;1.35;;
17670;SDS011;8954;48.694;8.940;2022-08-07T12:06:30;0.00;;;0.00;;
17670;SDS011;8954;48.694;8.940;2022-08-07T12:09:15;0.00;;;0.00;;
17670;SDS011;8954;48.694;8.940;2022-08-07T12:11:55;0.00;;;0.00;;
17670;SDS011;8954;48.694;8.940;2022-08-07T12:14:29;0.00;;;0.00;;
17670;SDS011;8954;48.694;8.940;2022-08-07T12:17:04;0.00;;;0.00;;
17670;SDS011;8954;48.694;8.940;2022-08-07T12:19:40;0.00;;;0.00;;
17670;SDS011;8954;48.694;8.940;2022-08-07T12:22:17;0.30;;;0.20;;
17670;SDS011;8954;48.694;8.940;2022-08-07T12:25:19;0.00;;;0.00;;
17670;SDS011;8954;48.694;8.940;2022-08-07T12:28:12;0.00;;;0.00;;
17670;SDS011;8954;48.694;8.940;2022-08-07T12:30:41;0.00;;;0.00;;
17670;SDS011;8954;48.694;8.940;2022-08-07T12:33:11;0.00;;;0.00;;
17670;SDS011;8954;48.694;8.940;2022-08-07T12:35:42;0.00;;;0.00;;
17670;SDS011;8954;48.694;8.940;2022-08-07T12:38:11;0.00;;;0.00;;
17670;SDS011;8954;48.694;8.940;2022-08-07T12:40:39;0.00;;;0.00;;
17670;SDS011;8954;48.694;8.940;2022-08-07T12:43:09;0.00;;;0.00;;
17670;SDS011;8954;48.694;8.940;2022-08-07T12:51:23;0.00;;;0.00;;
17670;SDS011;8954;48.694;8.940;2022-08-07T12:56:33;0.00;;;0.00;;
17670;SDS011;8954;48.694;8.940;2022-08-07T12:59:02;0.00;;;0.00;;
17670;SDS011;8954;48.694;8.940;2022-08-07T13:04:46;0.00;;;0.00;;
17670;SDS011;8954;48.694;8.940;2022-08-07T13:13:26;0.00;;;0.00;;
17670;SDS011;8954;48.694;8.940;2022-08-07T13:16:14;0.00;;;0.00;;
17670;SDS011;8954;48.694;8.940;2022-08-07T13:19:02;0.00;;;0.00;;
17670;SDS011;8954;48.694;8.940;2022-08-07T13:21:55;0.13;;;0.10;;
17670;SDS011;8954;48.694;8.940;2022-08-07T13:24:33;0.00;;;0.00;;
17670;SDS011;8954;48.694;8.940;2022-08-07T13:27:12;0.00;;;0.00;;
17670;SDS011;8954;48.694;8.940;2022-08-07T13:30:00;0.00;;;0.00;;
17670;SDS011;8954;48.694;8.940;2022-08-07T13:32:48;0.00;;;0.00;;
17670;SDS011;8954;48.694;8.940;2022-08-07T13:35:28;0.00;;;0.00;;
17670;SDS011;8954;48.694;8.940;2022-08-07T13:44:20;0.00;;;0.00;;
17670;SDS011;8954;48.694;8.940;2022-08-07T13:46:55;0.45;;;0.45;;
17670;SDS011;8954;48.694;8.940;2022-08-07T13:49:25;0.00;;;0.00;;
17670;SDS011;8954;48.694;8.940;2022-08-07T13:51:56;0.00;;;0.00;;
17670;SDS011;8954;48.694;8.940;2022-08-07T13:54:28;0.00;;;0.00;;
17670;SDS011;8954;48.694;8.940;2022-08-07T13:56:55;0.00;;;0.00;;
17670;SDS011;8954;48.694;8.940;2022-08-07T13:59:24;0.10;;;0.00;;
17670;SDS011;8954;48.694;8.940;2022-08-07T14:02:18;0.00;;;0.00;;
17670;SDS011;8954;48.694;8.940;2022-08-07T14:04:48;0.00;;;0.00;;
17670;SDS011;8954;48.694;8.940;2022-08-07T14:07:20;0.00;;;0.00;;
17670;SDS011;8954;48.694;8.940;2022-08-07T14:09:52;0.20;;;0.00;;
17670;SDS011;8954;48.694;8.940;2022-08-07T14:12:32;0.10;;;0.10;;
17670;SDS011;8954;48.694;8.940;2022-08-07T14:15:17;0.03;;;0.03;;
17670;SDS011;8954;48.694;8.940;2022-08-07T14:17:53;0.10;;;0.10;;
17670;SDS011;8954;48.694;8.940;2022-08-07T14:20:30;0.10;;;0.08;;
17670;SDS011;8954;48.694;8.940;2022-08-07T14:23:05;0.38;;;0.10;;
17670;SDS011;8954;48.694;8.940;2022-08-07T14:26:09;0.10;;;0.10;;
17670;SDS011;8954;48.694;8.940;2022-08-07T14:28:43;0.10;;;0.10;;
17670;SDS011;8954;48.694;8.940;2022-08-07T14:31:10;1.85;;;1.77;;
17670;SDS011;8954;48.694;8.940;2022-08-07T14:33:38;0.35;;;0.10;;
17670;SDS011;8954;48.694;8.940;2022-08-07T14:36:07;0.28;;;0.15;;
17670;SDS011;8954;48.694;8.940;2022-08-07T14:38:37;0.20;;;0.13;;
17670;SDS011;8954;48.694;8.940;2022-08-07T14:41:05;1.27;;;0.10;;
17670;SDS011;8954;48.694;8.940;2022-08-07T14:43:37;0.35;;;0.10;;
17670;SDS011;8954;48.694;8.940;2022-08-07T14:46:04;0.00;;;0.00;;
17670;SDS011;8954;48.694;8.940;2022-08-07T14:48:33;0.10;;;0.10;;
17670;SDS011;8954;48.694;8.940;2022-08-07T14:51:06;0.10;;;0.10;;
17670;SDS011;8954;48.694;8.940;2022-08-07T14:53:41;0.35;;;0.30;;
17670;SDS011;8954;48.694;8.940;2022-08-07T14:56:11;1.55;;;1.45;;
17670;SDS011;8954;48.694;8.940;2022-08-07T14:58:42;0.20;;;0.20;;
17670;SDS011;8954;48.694;8.940;2022-08-07T15:01:12;0.20;;;0.20;;
17670;SDS011;8954;48.694;8.940;2022-08-07T15:03:41;0.28;;;0.28;;
17670;SDS011;8954;48.694;8.940;2022-08-07T15:06:08;0.55;;;0.55;;
17670;SDS011;8954;48.694;8.940;2022-08-07T15:08:38;1.73;;;0.80;;
17670;SDS011;8954;48.694;8.940;2022-08-07T15:11:14;1.08;;;1.08;;
17670;SDS011;8954;48.694;8.940;2022-08-07T15:13:59;1.65;;;1.20;;
17670;SDS011;8954;48.694;8.940;2022-08-07T15:19:07;1.25;;;0.98;;
17670;SDS011;8954;48.694;8.940;2022-08-07T15:21:44;1.40;;;1.27;;
17670;SDS011;8954;48.694;8.940;2022-08-07T15:24:17;1.40;;;1.23;;
17670;SDS011;8954;48.694;8.940;2022-08-07T15:26:46;1.88;;;0.98;;
17670;SDS011;8954;48.694;8.940;2022-08-07T15:29:19;1.33;;;1.10;;
17670;SDS011;8954;48.694;8.940;2022-08-07T15:31:49;0.80;;;0.80;;
17670;SDS011;8954;48.694;8.940;2022-08-07T15:34:16;2.20;;;1.15;;
17670;SDS011;8954;48.694;8.940;2022-08-07T15:36:44;1.02;;;0.80;;
17670;SDS011;8954;48.694;8.940;2022-08-07T15:39:12;1.42;;;1.00;;
17670;SDS011;8954;48.694;8.940;2022-08-07T15:44:24;2.13;;;0.90;;
17670;SDS011;8954;48.694;8.940;2022-08-07T15:46:58;0.90;;;0.90;;
17670;SDS011;8954;48.694;8.940;2022-08-07T15:49:29;2.28;;;1.08;;
17670;SDS011;8954;48.694;8.940;2022-08-07T15:51:59;0.82;;;0.77;;
17670;SDS011;8954;48.694;8.940;2022-08-07T15:54:33;1.50;;;0.95;;
17670;SDS011;8954;48.694;8.940;2022-08-07T15:57:05;1.65;;;0.90;;
17670;SDS011;8954;48.694;8.940;2022-08-07T15:59:34;2.28;;;0.93;;
17670;SDS011;8954;48.694;8.940;2022-08-07T16:02:07;1.73;;;0.88;;
17670;SDS011;8954;48.694;8.940;2022-08-07T16:04:37;1.35;;;1.00;;
17670;SDS011;8954;48.694;8.940;2022-08-07T16:07:05;0.73;;;0.68;;
17670;SDS011;8954;48.694;8.940;2022-08-07T16:09:36;1.80;;;1.70;;
17670;SDS011;8954;48.694;8.940;2022-08-07T16:12:22;5.78;;;5.18;;
17670;SDS011;8954;48.694;8.940;2022-08-07T16:23:30;1.65;;;0.90;;
17670;SDS011;8954;48.694;8.940;2022-08-07T16:40:06;1.83;;;0.90;;
17670;SDS011;8954;48.694;8.940;2022-08-07T16:42:44;2.03;;;0.82;;
17670;SDS011;8954;48.694;8.940;2022-08-07T16:53:42;1.30;;;0.90;;
17670;SDS011;8954;48.694;8.940;2022-08-07T16:56:19;2.00;;;0.70;;
17670;SDS011;8954;48.694;8.940;2022-08-07T17:01:47;1.08;;;0.98;;
17670;SDS011;8954;48.694;8.940;2022-08-07T17:04:35;4.45;;;1.02;;
17670;SDS011;8954;48.694;8.940;2022-08-07T17:07:15;2.40;;;0.90;;
17670;SDS011;8954;48.694;8.940;2022-08-07T17:09:50;1.80;;;0.90;;
17670;SDS011;8954;48.694;8.940;2022-08-07T17:12:27;0.88;;;0.88;;
17670;SDS011;8954;48.694;8.940;2022-08-07T17:23:04;1.35;;;0.70;;
17670;SDS011;8954;48.694;8.940;2022-08-07T17:28:34;1.35;;;0.70;;
17670;SDS011;8954;48.694;8.940;2022-08-07T17:36:35;1.95;;;0.77;;
17670;SDS011;8954;48.694;8.940;2022-08-07T17:39:07;1.65;;;0.70;;
17670;SDS011;8954;48.694;8.940;2022-08-07T17:41:56;0.68;;;0.68;;
17670;SDS011;8954;48.694;8.940;2022-08-07T17:47:09;0.68;;;0.68;;
17670;SDS011;8954;48.694;8.940;2022-08-07T17:49:38;0.68;;;0.68;;
17670;SDS011;8954;48.694;8.940;2022-08-07T17:52:10;0.65;;;0.60;;
17670;SDS011;8954;48.694;8.940;2022-08-07T17:54:47;1.00;;;0.80;;
17670;SDS011;8954;48.694;8.940;2022-08-07T17:57:24;0.80;;;0.80;;
17670;SDS011;8954;48.694;8.940;2022-08-07T18:00:03;0.70;;;0.70;;
17670;SDS011;8954;48.694;8.940;2022-08-07T18:05:30;0.98;;;0.80;;
17670;SDS011;8954;48.694;8.940;2022-08-07T18:10:42;1.02;;;0.80;;
17670;SDS011;8954;48.694;8.940;2022-08-07T18:18:48;0.55;;;0.55;;
17670;SDS011;8954;48.694;8.940;2022-08-07T18:24:16;1.92;;;0.73;;
17670;SDS011;8954;48.694;8.940;2022-08-07T18:29:41;4.40;;;1.10;;
17670;SDS011;8954;48.694;8.940;2022-08-07T18:37:27;3.65;;;1.40;;
17670;SDS011;8954;48.694;8.940;2022-08-07T18:40:18;2.50;;;1.67;;
17670;SDS011;8954;48.694;8.940;2022-08-07T18:46:07;1.85;;;0.98;;
17670;SDS011;8954;48.694;8.940;2022-08-07T18:48:47;1.05;;;0.80;;
17670;SDS011;8954;48.694;8.940;2022-08-07T18:51:39;0.77;;;0.75;;
17670;SDS011;8954;48.694;8.940;2022-08-07T18:54:21;1.35;;;0.93;;
17670;SDS011;8954;48.694;8.940;2022-08-07T18:57:04;0.68;;;0.68;;
17670;SDS011;8954;48.694;8.940;2022-08-07T19:05:24;1.20;;;0.50;;
17670;SDS011;8954;48.694;8.940;2022-08-07T19:07:58;0.70;;;0.63;;
17670;SDS011;8954;48.694;8.940;2022-08-07T19:10:29;1.17;;;0.93;;
17670;SDS011;8954;48.694;8.940;2022-08-07T19:15:44;2.10;;;0.87;;
17670;SDS011;8954;48.694;8.940;2022-08-07T19:21:11;1.50;;;0.70;;
17670;SDS011;8954;48.694;8.940;2022-08-07T19:23:54;1.57;;;0.80;;
17670;SDS011;8954;48.694;8.940;2022-08-07T19:26:23;1.83;;;0.73;;
17670;SDS011;8954;48.694;8.940;2022-08-07T19:28:58;1.97;;;0.90;;
17670;SDS011;8954;48.694;8.940;2022-08-07T19:31:28;1.27;;;0.60;;
17670;SDS011;8954;48.694;8.940;2022-08-07T19:34:00;2.47;;;0.70;;
17670;SDS011;8954;48.694;8.940;2022-08-07T19:36:29;0.70;;;0.60;;
17670;SDS011;8954;48.694;8.940;2022-08-07T19:39:02;0.90;;;0.70;;
17670;SDS011;8954;48.694;8.940;2022-08-07T19:41:38;1.70;;;0.80;;
17670;SDS011;8954;48.694;8.940;2022-08-07T19:44:10;0.50;;;0.50;;
17670;SDS011;8954;48.694;8.940;2022-08-07T19:46:42;0.60;;;0.57;;
17670;SDS011;8954;48.694;8.940;2022-08-07T19:49:18;1.97;;;0.90;;
17670;SDS011;8954;48.694;8.940;2022-08-07T19:51:50;1.30;;;0.70;;
17670;SDS011;8954;48.694;8.940;2022-08-07T19:54:18;0.57;;;0.50;;